createdAt,value
2019-04-29T00:01:37.837Z,99.90
2019-04-29T00:04:08.052Z,99.90
2019-04-29T00:06:38.332Z,99.90
2019-04-29T00:09:11.953Z,99.90
2019-04-29T00:11:42.192Z,99.90
2019-04-29T00:14:12.596Z,99.90
2019-04-29T00:16:55.444Z,99.90
2019-04-29T00:19:39.371Z,99.90
2019-04-29T00:22:09.994Z,99.90
2019-04-29T00:24:40.245Z,99.90
2019-04-29T00:27:10.595Z,99.90
2019-04-29T00:29:40.773Z,99.90
2019-04-29T00:32:11.224Z,99.90
2019-04-29T00:34:41.417Z,99.90
2019-04-29T00:37:33.394Z,99.90
2019-04-29T00:40:21.300Z,99.90
2019-04-29T00:43:08.417Z,99.90
2019-04-29T00:45:38.673Z,99.90
2019-04-29T00:48:08.880Z,99.90
2019-04-29T00:50:39.044Z,99.90
2019-04-29T00:53:09.413Z,99.90
2019-04-29T00:55:39.661Z,99.90
2019-04-29T00:58:09.929Z,99.90
2019-04-29T01:00:41.437Z,99.90
2019-04-29T01:03:11.728Z,99.90
2019-04-29T01:05:41.928Z,99.90
2019-04-29T01:08:12.225Z,99.90
2019-04-29T01:10:42.488Z,99.90
2019-04-29T01:13:12.787Z,99.90
2019-04-29T01:15:43.039Z,99.90
2019-04-29T01:18:13.552Z,99.90
2019-04-29T01:20:43.761Z,99.90
2019-04-29T01:23:14.053Z,99.90
2019-04-29T01:25:45.861Z,99.90
2019-04-29T01:28:22.008Z,99.90
2019-04-29T01:30:58.082Z,99.90
2019-04-29T01:33:28.497Z,99.90
2019-04-29T01:36:28.480Z,99.90
2019-04-29T01:39:01.070Z,99.90
2019-04-29T01:41:35.204Z,99.90
2019-04-29T01:44:06.335Z,99.90
2019-04-29T01:46:36.574Z,99.90
2019-04-29T01:49:06.825Z,99.90
2019-04-29T01:51:37.001Z,99.90
2019-04-29T01:54:07.269Z,99.90
2019-04-29T01:56:37.541Z,99.90
2019-04-29T01:59:07.795Z,99.90
2019-04-29T02:01:38.052Z,99.90
2019-04-29T02:04:08.354Z,99.90
2019-04-29T02:06:38.601Z,99.90
2019-04-29T02:09:12.152Z,99.90
2019-04-29T02:11:42.435Z,99.90
2019-04-29T02:14:12.696Z,99.90
2019-04-29T02:16:44.061Z,99.90
2019-04-29T02:19:14.285Z,99.90
2019-04-29T02:22:03.477Z,99.90
2019-04-29T02:24:34.789Z,99.90
2019-04-29T02:27:05.811Z,99.90
2019-04-29T02:29:36.148Z,99.90
2019-04-29T02:32:06.400Z,99.90
2019-04-29T02:34:36.573Z,99.90
2019-04-29T02:37:08.405Z,99.90
2019-04-29T02:39:46.849Z,99.90
2019-04-29T02:42:45.106Z,99.90
2019-04-29T02:45:20.282Z,99.90
2019-04-29T02:47:50.550Z,99.90
2019-04-29T02:50:20.818Z,99.90
2019-04-29T02:52:50.990Z,99.90
2019-04-29T02:55:29.618Z,99.90
2019-04-29T02:58:07.891Z,99.90
2019-04-29T03:00:57.142Z,99.90
2019-04-29T03:03:35.250Z,99.90
2019-04-29T03:06:05.424Z,99.90
2019-04-29T03:08:35.616Z,99.90
2019-04-29T03:11:05.783Z,99.90
2019-04-29T03:13:35.944Z,99.90
2019-04-29T03:16:06.208Z,99.90
2019-04-29T03:18:38.338Z,99.90
2019-04-29T03:21:21.666Z,99.90
2019-04-29T03:23:51.959Z,99.90
2019-04-29T03:26:22.365Z,99.90
2019-04-29T03:28:52.589Z,99.90
2019-04-29T03:31:22.874Z,99.90
2019-04-29T03:33:53.186Z,99.90
2019-04-29T03:36:23.463Z,99.90
2019-04-29T03:38:53.741Z,99.90
2019-04-29T03:41:23.950Z,99.90
2019-04-29T03:43:54.146Z,99.90
2019-04-29T03:46:24.326Z,99.90
2019-04-29T03:48:54.565Z,99.90
2019-04-29T03:51:24.877Z,99.90
2019-04-29T03:53:55.059Z,99.90
2019-04-29T03:56:25.366Z,99.90
2019-04-29T03:58:55.553Z,99.90
2019-04-29T04:01:47.229Z,99.90
2019-04-29T04:04:35.073Z,99.90
2019-04-29T04:07:22.674Z,99.90
2019-04-29T04:09:53.000Z,99.90
2019-04-29T04:12:23.178Z,99.90
2019-04-29T04:14:53.457Z,99.90
2019-04-29T04:17:32.281Z,99.90
2019-04-29T04:20:02.958Z,99.90
2019-04-29T04:22:46.504Z,99.90
2019-04-29T04:25:17.190Z,99.90
2019-04-29T04:27:47.462Z,99.90
2019-04-29T04:30:18.566Z,99.90
2019-04-29T04:32:48.821Z,99.90
2019-04-29T04:35:19.064Z,99.90
2019-04-29T04:37:49.234Z,99.90
2019-04-29T04:40:25.636Z,99.90
2019-04-29T04:42:55.892Z,99.90
2019-04-29T04:45:26.178Z,99.90
2019-04-29T04:47:56.397Z,99.90
2019-04-29T04:50:26.671Z,99.90
2019-04-29T04:52:56.929Z,99.90
2019-04-29T04:55:29.675Z,99.90
2019-04-29T04:57:59.912Z,99.90
2019-04-29T05:00:31.747Z,99.90
2019-04-29T05:03:02.000Z,99.90
2019-04-29T05:05:32.709Z,99.90
2019-04-29T05:08:03.002Z,99.90
2019-04-29T05:10:33.277Z,99.90
2019-04-29T05:13:03.543Z,99.90
2019-04-29T05:15:33.805Z,99.90
2019-04-29T05:18:04.181Z,99.90
2019-04-29T05:20:34.505Z,99.90
2019-04-29T05:23:05.004Z,99.90
2019-04-29T05:25:35.501Z,99.90
2019-04-29T05:28:05.781Z,99.90
2019-04-29T05:30:35.963Z,99.90
2019-04-29T05:33:06.176Z,99.90
2019-04-29T05:35:56.563Z,99.90
2019-04-29T05:38:31.069Z,99.90
2019-04-29T05:41:01.312Z,99.90
2019-04-29T05:43:56.356Z,99.90
2019-04-29T05:46:51.432Z,99.90
2019-04-29T05:49:26.862Z,99.90
2019-04-29T05:52:08.481Z,99.90
2019-04-29T05:54:38.829Z,99.90
2019-04-29T05:57:09.079Z,99.90
2019-04-29T05:59:39.386Z,99.90
2019-04-29T06:02:09.707Z,99.90
2019-04-29T06:04:40.785Z,99.90
2019-04-29T06:07:11.028Z,99.90
2019-04-29T06:09:41.318Z,99.90
2019-04-29T06:12:11.552Z,99.90
2019-04-29T06:14:41.772Z,99.90
2019-04-29T06:17:12.012Z,99.90
2019-04-29T06:19:42.355Z,99.90
2019-04-29T06:22:12.648Z,99.90
2019-04-29T06:24:42.934Z,99.90
2019-04-29T06:27:13.216Z,99.90
2019-04-29T06:29:43.456Z,99.90
2019-04-29T06:32:13.925Z,99.90
2019-04-29T06:34:44.133Z,99.90
2019-04-29T06:37:14.383Z,99.90
2019-04-29T06:39:44.699Z,99.90
2019-04-29T06:42:15.481Z,99.90
2019-04-29T06:44:49.101Z,99.90
2019-04-29T06:47:18.794Z,99.90
2019-04-29T06:49:49.081Z,99.90
2019-04-29T06:52:19.403Z,99.90
2019-04-29T06:54:49.693Z,99.90
2019-04-29T06:57:20.000Z,99.90
2019-04-29T06:59:50.290Z,99.90
2019-04-29T07:02:21.129Z,99.90
2019-04-29T07:04:52.186Z,99.90
2019-04-29T07:07:22.889Z,99.90
2019-04-29T07:09:56.829Z,99.90
2019-04-29T07:12:26.465Z,99.90
2019-04-29T07:14:56.750Z,99.90
2019-04-29T07:17:26.937Z,99.90
2019-04-29T07:19:57.648Z,99.90
2019-04-29T07:22:31.110Z,99.90
2019-04-29T07:25:01.156Z,99.90
2019-04-29T07:27:34.843Z,99.90
2019-04-29T07:30:06.539Z,99.90
2019-04-29T07:32:35.353Z,99.90
2019-04-29T07:35:09.981Z,99.90
2019-04-29T07:37:38.042Z,99.90
2019-04-29T07:40:09.385Z,99.90
2019-04-29T07:42:39.804Z,99.90
2019-04-29T07:45:43.379Z,99.90
2019-04-29T07:48:06.394Z,99.90
2019-04-29T07:50:34.472Z,99.90
2019-04-29T07:53:05.217Z,99.90
2019-04-29T07:55:35.504Z,99.90
2019-04-29T07:58:05.851Z,99.70
2019-04-29T08:00:36.646Z,99.70
2019-04-29T08:03:07.759Z,99.60
2019-04-29T08:05:40.344Z,99.80
2019-04-29T08:08:10.667Z,99.90
2019-04-29T08:10:53.590Z,99.90
2019-04-29T08:13:14.507Z,99.90
2019-04-29T08:15:44.959Z,99.90
2019-04-29T08:18:16.161Z,99.90
2019-04-29T08:20:47.276Z,99.90
2019-04-29T08:23:17.508Z,99.70
2019-04-29T08:25:50.719Z,99.50
2019-04-29T08:28:19.741Z,99.40
2019-04-29T08:30:50.435Z,99.40
2019-04-29T08:33:20.685Z,99.40
2019-04-29T08:35:50.924Z,99.30
2019-04-29T08:38:21.299Z,99.50
2019-04-29T08:40:51.744Z,99.20
2019-04-29T08:43:31.360Z,99.30
2019-04-29T08:46:07.890Z,99.60
2019-04-29T08:48:38.300Z,99.60
2019-04-29T08:51:08.591Z,99.70
2019-04-29T08:53:38.821Z,99.70
2019-04-29T08:56:10.250Z,99.90
2019-04-29T08:58:44.093Z,99.70
2019-04-29T09:01:15.000Z,99.60
2019-04-29T09:03:45.427Z,99.30
2019-04-29T09:06:15.742Z,99.40
2019-04-29T09:08:54.621Z,99.50
2019-04-29T09:11:17.921Z,99.20
2019-04-29T09:13:48.261Z,99.30
2019-04-29T09:16:18.546Z,99.40
2019-04-29T09:18:48.795Z,99.40
2019-04-29T09:21:19.011Z,99.70
2019-04-29T09:23:49.349Z,99.60
2019-04-29T09:26:26.069Z,99.50
2019-04-29T09:28:59.695Z,99.50
2019-04-29T09:31:28.335Z,99.70
2019-04-29T09:34:06.288Z,99.30
2019-04-29T09:36:30.699Z,99.00
2019-04-29T09:39:01.028Z,98.80
2019-04-29T09:41:38.752Z,98.70
2019-04-29T09:44:35.191Z,98.70
2019-04-29T09:47:08.534Z,98.70
2019-04-29T09:49:40.714Z,98.60
2019-04-29T09:52:11.091Z,98.70
2019-04-29T09:54:41.428Z,98.80
2019-04-29T09:57:11.720Z,98.90
2019-04-29T09:59:46.299Z,98.80
2019-04-29T10:02:35.766Z,98.40
2019-04-29T10:05:31.481Z,98.00
2019-04-29T10:08:01.815Z,97.70
2019-04-29T10:10:32.188Z,97.60
2019-04-29T10:13:02.556Z,97.10
2019-04-29T10:15:43.176Z,97.10
2019-04-29T10:18:25.045Z,97.20
2019-04-29T10:20:57.875Z,97.10
2019-04-29T10:23:28.234Z,96.80
2019-04-29T10:25:58.593Z,96.70
2019-04-29T10:28:28.932Z,96.50
2019-04-29T10:30:59.270Z,97.10
2019-04-29T10:33:29.664Z,96.80
2019-04-29T10:35:59.890Z,96.40
2019-04-29T10:38:30.108Z,96.60
2019-04-29T10:41:16.049Z,96.60
2019-04-29T10:44:05.306Z,96.50
2019-04-29T10:46:48.819Z,96.20
2019-04-29T10:49:34.743Z,96.10
2019-04-29T10:52:04.648Z,96.00
2019-04-29T10:54:35.475Z,95.60
2019-04-29T10:57:06.186Z,95.50
2019-04-29T10:59:40.676Z,95.70
2019-04-29T11:02:33.932Z,96.00
2019-04-29T11:05:35.043Z,94.30
2019-04-29T11:08:18.854Z,94.60
2019-04-29T11:10:49.283Z,94.70
2019-04-29T11:13:19.524Z,95.10
2019-04-29T11:15:51.257Z,95.30
2019-04-29T11:18:23.218Z,95.40
2019-04-29T11:20:55.313Z,95.60
2019-04-29T11:23:50.594Z,95.50
2019-04-29T11:26:37.344Z,94.90
2019-04-29T11:29:09.520Z,94.80
2019-04-29T11:31:39.598Z,95.10
2019-04-29T11:34:25.067Z,95.00
2019-04-29T11:36:55.308Z,95.20
2019-04-29T11:39:25.595Z,94.40
2019-04-29T11:41:59.654Z,94.70
2019-04-29T11:44:28.338Z,94.60
2019-04-29T11:46:58.764Z,94.30
2019-04-29T11:49:40.611Z,93.70
2019-04-29T11:52:10.893Z,93.30
2019-04-29T11:54:41.318Z,93.70
2019-04-29T11:57:17.136Z,94.00
2019-04-29T12:00:10.117Z,93.30
2019-04-29T12:02:47.044Z,93.40
2019-04-29T12:05:27.478Z,93.30
2019-04-29T12:07:57.711Z,93.40
2019-04-29T12:10:27.949Z,93.30
2019-04-29T12:12:59.786Z,93.40
2019-04-29T12:15:45.071Z,93.40
2019-04-29T12:18:19.068Z,93.20
2019-04-29T12:21:08.407Z,93.40
2019-04-29T12:23:38.769Z,93.60
2019-04-29T12:26:10.618Z,92.90
2019-04-29T12:28:42.871Z,92.90
2019-04-29T12:31:20.356Z,92.60
2019-04-29T12:33:55.997Z,92.80
2019-04-29T12:36:26.295Z,92.90
2019-04-29T12:39:42.226Z,93.20
2019-04-29T12:42:14.216Z,93.00
2019-04-29T12:44:59.729Z,92.50
2019-04-29T12:47:32.049Z,91.80
2019-04-29T12:50:02.331Z,91.50
2019-04-29T12:52:32.673Z,91.90
2019-04-29T12:55:19.325Z,91.40
2019-04-29T12:57:35.658Z,91.40
2019-04-29T13:00:09.029Z,90.80
2019-04-29T13:03:00.274Z,90.90
2019-04-29T13:05:58.425Z,90.10
2019-04-29T13:08:28.333Z,89.60
2019-04-29T13:11:01.389Z,91.00
2019-04-29T13:13:33.427Z,91.00
2019-04-29T13:16:22.065Z,90.90
2019-04-29T13:19:30.020Z,90.20
2019-04-29T13:22:01.352Z,88.30
2019-04-29T13:24:31.571Z,85.80
2019-04-29T13:27:15.403Z,88.20
2019-04-29T13:29:36.200Z,89.60
2019-04-29T13:32:05.854Z,89.50
2019-04-29T13:34:39.780Z,89.60
2019-04-29T13:37:18.343Z,90.00
2019-04-29T13:39:42.053Z,90.30
2019-04-29T13:42:15.628Z,90.50
2019-04-29T13:45:04.424Z,90.40
2019-04-29T13:47:33.432Z,90.40
2019-04-29T13:50:20.125Z,90.20
2019-04-29T13:52:42.899Z,90.00
2019-04-29T13:55:17.953Z,90.50
2019-04-29T13:57:49.556Z,90.10
2019-04-29T14:00:28.660Z,90.20
2019-04-29T14:03:14.741Z,90.00
2019-04-29T14:05:45.175Z,89.30
2019-04-29T14:08:15.471Z,87.60
2019-04-29T14:10:46.807Z,87.60
2019-04-29T14:13:20.988Z,88.90
2019-04-29T14:15:50.021Z,87.70
2019-04-29T14:18:20.368Z,88.50
2019-04-29T14:20:51.874Z,88.40
2019-04-29T14:23:22.660Z,88.20
2019-04-29T14:25:52.896Z,88.50
2019-04-29T14:28:23.162Z,89.50
2019-04-29T14:30:55.725Z,89.30
2019-04-29T14:33:30.927Z,88.80
2019-04-29T14:36:05.783Z,89.60
2019-04-29T14:38:40.638Z,89.50
2019-04-29T14:41:08.118Z,89.80
2019-04-29T14:43:45.949Z,90.00
2019-04-29T14:46:40.968Z,90.30
2019-04-29T14:49:15.280Z,90.20
2019-04-29T14:51:45.664Z,90.50
2019-04-29T14:54:17.260Z,90.20
2019-04-29T14:56:47.704Z,90.40
2019-04-29T14:59:18.194Z,90.30
2019-04-29T15:02:01.961Z,90.70
2019-04-29T15:04:44.259Z,91.20
2019-04-29T15:07:14.722Z,91.10
2019-04-29T15:09:58.254Z,91.10
2019-04-29T15:13:11.878Z,91.30
2019-04-29T15:16:04.549Z,91.20
2019-04-29T15:19:03.187Z,90.90
2019-04-29T15:21:42.922Z,91.00
2019-04-29T15:24:10.113Z,90.40
2019-04-29T15:26:40.405Z,88.40
2019-04-29T15:29:10.714Z,89.20
2019-04-29T15:31:42.590Z,89.30
2019-04-29T15:34:14.570Z,88.90
2019-04-29T15:36:45.309Z,90.00
2019-04-29T15:39:15.903Z,90.80
2019-04-29T15:41:46.507Z,90.90
2019-04-29T15:44:20.288Z,90.90
2019-04-29T15:46:48.989Z,90.50
2019-04-29T15:49:20.085Z,89.00
2019-04-29T15:51:51.316Z,87.20
2019-04-29T15:54:21.712Z,86.70
2019-04-29T15:56:52.047Z,86.30
2019-04-29T15:59:22.299Z,86.40
2019-04-29T16:01:52.677Z,86.50
2019-04-29T16:04:47.304Z,86.50
2019-04-29T16:07:58.288Z,87.00
2019-04-29T16:10:58.017Z,86.80
2019-04-29T16:13:50.132Z,87.90
2019-04-29T16:16:37.023Z,89.00
2019-04-29T16:19:25.149Z,89.60
2019-04-29T16:22:20.003Z,90.00
2019-04-29T16:25:04.838Z,90.10
2019-04-29T16:27:54.043Z,90.50
2019-04-29T16:30:42.225Z,91.60
2019-04-29T16:33:30.659Z,94.10
2019-04-29T16:36:19.270Z,95.50
2019-04-29T16:39:08.235Z,96.20
2019-04-29T16:42:14.985Z,96.90
2019-04-29T16:44:46.390Z,97.50
2019-04-29T16:47:17.194Z,97.70
2019-04-29T16:49:47.607Z,98.00
2019-04-29T16:52:18.011Z,98.50
2019-04-29T16:54:48.469Z,99.00
2019-04-29T16:57:18.906Z,99.40
2019-04-29T16:59:49.369Z,99.60
2019-04-29T17:02:20.045Z,99.60
2019-04-29T17:04:50.550Z,99.70
2019-04-29T17:07:33.285Z,99.90
2019-04-29T17:10:21.338Z,99.90
2019-04-29T17:12:51.953Z,99.90
2019-04-29T17:15:25.374Z,99.90
2019-04-29T17:17:54.429Z,99.90
2019-04-29T17:20:24.825Z,99.90
2019-04-29T17:22:55.211Z,99.90
2019-04-29T17:25:25.522Z,99.90
2019-04-29T17:28:02.462Z,99.90
2019-04-29T17:31:14.363Z,99.90
2019-04-29T17:33:54.566Z,99.90
2019-04-29T17:36:25.875Z,99.90
2019-04-29T17:38:56.439Z,99.90
2019-04-29T17:41:26.748Z,99.90
2019-04-29T17:44:18.680Z,99.90
2019-04-29T17:47:13.334Z,99.90
2019-04-29T17:49:51.246Z,99.90
2019-04-29T17:52:25.960Z,99.90
2019-04-29T17:55:02.959Z,99.90
2019-04-29T17:57:38.350Z,99.90
2019-04-29T18:00:41.389Z,99.90
2019-04-29T18:03:41.314Z,99.90
2019-04-29T18:06:18.806Z,99.90
2019-04-29T18:08:56.625Z,99.90
2019-04-29T18:11:28.547Z,99.90
2019-04-29T18:13:58.912Z,99.90
2019-04-29T18:16:39.544Z,99.90
2019-04-29T18:19:30.879Z,99.90
2019-04-29T18:22:32.437Z,99.90
2019-04-29T18:25:09.697Z,99.90
2019-04-29T18:27:40.037Z,99.90
2019-04-29T18:30:12.248Z,99.90
2019-04-29T18:32:46.623Z,99.90
2019-04-29T18:35:15.370Z,99.90
2019-04-29T18:37:46.627Z,99.90
2019-04-29T18:40:17.187Z,99.90
2019-04-29T18:42:48.684Z,99.90
2019-04-29T18:45:19.169Z,99.90
2019-04-29T18:47:49.541Z,99.90
2019-04-29T18:50:19.844Z,99.90
2019-04-29T18:52:50.216Z,99.90
2019-04-29T18:55:20.525Z,99.90
2019-04-29T18:57:50.838Z,99.90
2019-04-29T19:00:21.913Z,99.90
2019-04-29T19:02:57.331Z,99.90
2019-04-29T19:05:32.422Z,99.90
2019-04-29T19:08:12.186Z,99.90
2019-04-29T19:10:37.377Z,99.90
2019-04-29T19:13:14.210Z,99.90
2019-04-29T19:15:44.178Z,99.90
2019-04-29T19:18:12.477Z,99.90
2019-04-29T19:20:46.114Z,99.90
2019-04-29T19:23:22.163Z,99.90
2019-04-29T19:25:49.732Z,99.90
2019-04-29T19:28:29.455Z,99.90
2019-04-29T19:30:56.063Z,99.90
2019-04-29T19:33:25.199Z,99.90
2019-04-29T19:35:55.599Z,99.90
2019-04-29T19:38:26.045Z,99.90
2019-04-29T19:40:56.343Z,99.90
2019-04-29T19:43:26.719Z,99.90
2019-04-29T19:45:57.459Z,99.90
2019-04-29T19:48:28.745Z,99.90
2019-04-29T19:51:18.023Z,99.90
2019-04-29T19:53:31.152Z,99.90
2019-04-29T19:56:04.470Z,99.90
2019-04-29T19:58:33.740Z,99.90
2019-04-29T20:01:11.793Z,99.90
2019-04-29T20:03:42.359Z,99.90
2019-04-29T20:06:21.457Z,99.90
2019-04-29T20:08:53.984Z,99.90
2019-04-29T20:11:18.815Z,99.90
2019-04-29T20:14:02.265Z,99.90
2019-04-29T20:16:44.838Z,99.90
2019-04-29T20:19:33.370Z,99.90
2019-04-29T20:22:07.454Z,99.90
2019-04-29T20:24:36.290Z,99.90
2019-04-29T20:27:06.754Z,99.90
2019-04-29T20:29:38.709Z,99.90
2019-04-29T20:32:09.562Z,99.90
2019-04-29T20:34:40.056Z,99.90
2019-04-29T20:37:15.167Z,99.90
2019-04-29T20:39:42.466Z,99.90
2019-04-29T20:42:12.950Z,99.90
2019-04-29T20:44:45.766Z,99.90
2019-04-29T20:47:22.151Z,99.90
2019-04-29T20:49:47.160Z,99.90
2019-04-29T20:52:33.008Z,99.90
2019-04-29T20:55:05.542Z,99.90
2019-04-29T20:57:35.938Z,99.90
2019-04-29T21:00:07.248Z,99.90
2019-04-29T21:02:37.838Z,99.90
2019-04-29T21:05:10.011Z,99.90
2019-04-29T21:07:40.422Z,99.90
2019-04-29T21:10:11.189Z,99.90
2019-04-29T21:13:00.660Z,99.90
2019-04-29T21:15:52.243Z,99.90
2019-04-29T21:18:18.869Z,99.90
2019-04-29T21:20:49.093Z,99.90
2019-04-29T21:23:19.391Z,99.90
2019-04-29T21:25:49.669Z,99.90
2019-04-29T21:28:19.922Z,99.90
2019-04-29T21:30:50.207Z,99.90
2019-04-29T21:33:21.503Z,99.90
2019-04-29T21:36:11.740Z,99.90
2019-04-29T21:39:01.923Z,99.90
2019-04-29T21:41:36.460Z,99.90
2019-04-29T21:44:07.276Z,99.90
2019-04-29T21:46:37.578Z,99.90
2019-04-29T21:49:11.678Z,99.90
2019-04-29T21:51:41.725Z,99.90
2019-04-29T21:54:14.178Z,99.90
2019-04-29T21:56:46.961Z,99.90
2019-04-29T21:59:15.848Z,99.90
2019-04-29T22:01:46.537Z,99.90
2019-04-29T22:04:16.814Z,99.90
2019-04-29T22:06:47.466Z,99.90
2019-04-29T22:09:17.883Z,99.90
2019-04-29T22:11:48.321Z,99.90
2019-04-29T22:14:18.688Z,99.90
2019-04-29T22:16:54.246Z,99.90
2019-04-29T22:19:26.058Z,99.90
2019-04-29T22:21:57.261Z,99.90
2019-04-29T22:24:26.330Z,99.90
2019-04-29T22:27:04.163Z,99.90
2019-04-29T22:29:31.961Z,99.90
2019-04-29T22:32:01.232Z,99.90
2019-04-29T22:34:31.493Z,99.90
2019-04-29T22:37:01.737Z,99.90
2019-04-29T22:39:32.044Z,99.90
2019-04-29T22:42:27.745Z,99.90
2019-04-29T22:44:57.369Z,99.90
2019-04-29T22:47:28.083Z,99.90
2019-04-29T22:49:58.674Z,99.90
2019-04-29T22:52:31.456Z,99.90
2019-04-29T22:55:02.337Z,99.90
2019-04-29T22:57:32.813Z,99.90
2019-04-29T23:00:05.013Z,99.90
2019-04-29T23:02:35.151Z,99.90
2019-04-29T23:05:05.553Z,99.90
2019-04-29T23:07:37.801Z,99.90
2019-04-29T23:10:08.168Z,99.90
2019-04-29T23:12:38.422Z,99.90
2019-04-29T23:15:08.738Z,99.90
2019-04-29T23:17:42.609Z,99.90
2019-04-29T23:20:35.508Z,99.90
2019-04-29T23:23:10.772Z,99.90
2019-04-29T23:25:52.034Z,99.90
2019-04-29T23:28:26.764Z,99.90
2019-04-29T23:30:54.629Z,99.90
2019-04-29T23:33:26.390Z,99.90
2019-04-29T23:35:56.859Z,99.90
2019-04-29T23:38:27.188Z,99.90
2019-04-29T23:40:57.462Z,99.90
2019-04-29T23:43:28.560Z,99.90
2019-04-29T23:46:00.481Z,99.90
2019-04-29T23:48:38.865Z,99.90
2019-04-29T23:51:03.117Z,99.90
2019-04-29T23:53:35.065Z,99.90
2019-04-29T23:56:09.507Z,99.90
2019-04-29T23:58:46.760Z,99.90
